Time;durP1;ratioP1;P1;durP2;ratioP2;P2;SDS_P1;SDS_P2;PMS_P1;PMS_P2;Temp;Humidity;BMP_temperature;BMP_pressure;BME280_temperature;BME280_humidity;BME280_pressure;Samples;Min_cycle;Max_cycle;Signal;HPM_P1;HPM_P2
2020/12/11 00:00:44;;;;;;;10.53;9.63;;;7.30;65.30;;;;;;5069201;28;20676;-48
2020/12/11 00:03:12;;;;;;;9.20;8.40;;;7.30;65.20;;;;;;5082574;28;20760;-48
2020/12/11 00:05:39;;;;;;;9.03;8.23;;;7.30;65.40;;;;;;5083431;28;20621;-48
2020/12/11 00:08:08;;;;;;;9.80;8.90;;;7.30;65.20;;;;;;5069984;28;20642;-48
2020/12/11 00:10:34;;;;;;;9.33;8.20;;;7.30;64.70;;;;;;5069073;28;21178;-48
2020/12/11 00:13:01;;;;;;;13.13;8.80;;;7.30;64.60;;;;;;5080913;28;20620;-48
2020/12/11 00:15:28;;;;;;;10.60;9.50;;;7.20;64.70;;;;;;5089907;28;20637;-48
2020/12/11 00:17:55;;;;;;;10.30;9.23;;;7.20;64.80;;;;;;5077871;28;20668;-47
2020/12/11 00:20:22;;;;;;;7.87;7.23;;;7.30;65.00;;;;;;5068838;28;21159;-47
2020/12/11 00:22:49;;;;;;;8.10;7.40;;;7.30;65.20;;;;;;5082302;28;20682;-46
2020/12/11 00:25:16;;;;;;;9.20;8.30;;;7.20;64.20;;;;;;5089237;28;20610;-48
2020/12/11 00:27:43;;;;;;;9.77;8.77;;;7.30;64.60;;;;;;5088471;28;20982;-48
2020/12/11 00:30:10;;;;;;;9.43;8.53;;;7.30;64.60;;;;;;5089322;28;20631;-47
2020/12/11 00:32:37;;;;;;;9.40;8.50;;;7.40;64.40;;;;;;5079706;28;21099;-48
2020/12/11 00:35:04;;;;;;;9.23;8.37;;;7.40;64.30;;;;;;5068770;28;20697;-48
2020/12/11 00:37:32;;;;;;;10.70;9.60;;;7.40;64.10;;;;;;5066428;28;20707;-50
2020/12/11 00:39:59;;;;;;;9.60;8.60;;;7.40;63.90;;;;;;5089070;28;20689;-49
2020/12/11 00:42:25;;;;;;;9.30;8.40;;;7.40;63.80;;;;;;5080899;28;20661;-49
2020/12/11 00:44:52;;;;;;;8.93;8.10;;;7.40;63.70;;;;;;5069841;28;20616;-48
2020/12/11 00:47:19;;;;;;;9.47;8.43;;;7.40;63.50;;;;;;5087363;28;20648;-48
2020/12/11 00:49:46;;;;;;;9.87;8.97;;;7.40;63.70;;;;;;5083577;28;20639;-47
2020/12/11 00:52:12;;;;;;;9.67;8.77;;;7.40;63.70;;;;;;5075085;28;20719;-47
2020/12/11 00:54:40;;;;;;;8.80;8.00;;;7.30;63.80;;;;;;5087972;28;20625;-49
2020/12/11 00:57:07;;;;;;;8.60;7.90;;;7.30;63.90;;;;;;5074565;28;20675;-48
2020/12/11 00:59:33;;;;;;;10.23;7.90;;;7.30;64.00;;;;;;5088813;28;20646;-48
2020/12/11 01:02:00;;;;;;;9.20;8.40;;;7.30;64.10;;;;;;5083950;28;20667;-49
2020/12/11 01:04:27;;;;;;;9.13;8.33;;;7.30;64.40;;;;;;5076469;28;21383;-48
2020/12/11 01:06:54;;;;;;;10.90;9.90;;;7.30;64.30;;;;;;5068616;28;20623;-49
2020/12/11 01:09:21;;;;;;;9.93;8.83;;;7.30;65.30;;;;;;5068864;28;20630;-48
2020/12/11 01:11:48;;;;;;;10.80;9.90;;;7.30;65.20;;;;;;5071470;28;21066;-50
2020/12/11 01:14:15;;;;;;;10.03;9.13;;;7.30;65.50;;;;;;5071581;28;20621;-50
2020/12/11 01:16:44;;;;;;;9.80;8.90;;;7.20;65.10;;;;;;5083017;28;20632;-50
2020/12/11 01:19:11;;;;;;;9.47;8.63;;;7.30;65.20;;;;;;5069479;28;20687;-50
2020/12/11 01:21:38;;;;;;;9.13;8.30;;;7.30;65.40;;;;;;5070590;28;20744;-50
2020/12/11 01:24:04;;;;;;;10.10;9.10;;;7.20;65.30;;;;;;5078473;28;20686;-50
2020/12/11 01:26:31;;;;;;;10.23;9.23;;;7.20;65.10;;;;;;5082652;28;20918;-49
2020/12/11 01:28:59;;;;;;;10.77;9.67;;;7.20;65.00;;;;;;5080760;28;20698;-49
2020/12/11 01:31:26;;;;;;;10.43;9.43;;;7.30;65.20;;;;;;5091468;28;20759;-49
2020/12/11 01:33:52;;;;;;;11.33;10.33;;;7.30;65.10;;;;;;5072374;28;20706;-49
2020/12/11 01:36:25;;;;;;;9.60;8.60;;;7.30;64.90;;;;;;5072206;28;20670;-49
2020/12/11 01:38:52;;;;;;;9.00;8.13;;;7.40;64.60;;;;;;5071742;28;20654;-49
2020/12/11 01:41:19;;;;;;;9.70;8.90;;;7.50;64.40;;;;;;5071883;28;20736;-49
2020/12/11 01:43:45;;;;;;;10.73;9.83;;;7.50;64.00;;;;;;5089873;28;20626;-49
2020/12/11 01:46:17;;;;;;;11.20;10.10;;;7.50;63.90;;;;;;5090231;28;20679;-49
2020/12/11 01:48:43;;;;;;;9.17;8.37;;;7.60;63.80;;;;;;5071917;28;20694;-50
2020/12/11 01:51:10;;;;;;;10.77;9.67;;;7.50;63.80;;;;;;5072018;28;20655;-49
2020/12/11 01:53:37;;;;;;;9.77;8.77;;;7.60;63.80;;;;;;5072350;28;20625;-48
2020/12/11 01:56:04;;;;;;;9.57;8.67;;;7.50;63.80;;;;;;5079218;28;21017;-48
2020/12/11 01:58:32;;;;;;;10.53;9.53;;;7.50;64.00;;;;;;5083221;28;21186;-48
2020/12/11 02:00:58;;;;;;;11.43;10.33;;;7.50;64.00;;;;;;5071689;28;20646;-48
2020/12/11 02:03:26;;;;;;;9.77;8.80;;;7.50;64.00;;;;;;5066417;28;20633;-49
2020/12/11 02:05:53;;;;;;;9.83;8.93;;;7.50;64.10;;;;;;5071155;28;20675;-49
2020/12/11 02:08:19;;;;;;;10.43;9.50;;;7.50;64.20;;;;;;5071227;28;20660;-49
2020/12/11 02:10:46;;;;;;;9.90;8.90;;;7.50;64.20;;;;;;5084881;28;20990;-48
2020/12/11 02:13:13;;;;;;;10.20;9.20;;;7.50;64.20;;;;;;5073049;28;20629;-49
2020/12/11 02:15:40;;;;;;;11.33;10.23;;;7.50;64.20;;;;;;5071857;28;20637;-48
2020/12/11 02:18:07;;;;;;;10.93;10.03;;;7.50;64.60;;;;;;5089293;28;20687;-49
2020/12/11 02:20:34;;;;;;;10.30;9.20;;;7.40;64.70;;;;;;5073158;28;20782;-48
2020/12/11 02:23:02;;;;;;;10.40;9.40;;;7.40;64.90;;;;;;5082403;28;20680;-48
2020/12/11 02:25:29;;;;;;;8.60;7.70;;;7.50;64.70;;;;;;5072036;28;20630;-48
2020/12/11 02:27:55;;;;;;;10.67;9.57;;;7.50;64.70;;;;;;5071518;28;20679;-48
2020/12/11 02:30:22;;;;;;;11.43;10.43;;;7.40;64.70;;;;;;5072722;28;20622;-49
2020/12/11 02:32:49;;;;;;;10.10;9.13;;;7.40;65.10;;;;;;5080226;28;21575;-48
2020/12/11 02:35:16;;;;;;;11.30;9.37;;;7.30;65.50;;;;;;5088442;28;20732;-48
2020/12/11 02:37:42;;;;;;;10.67;9.57;;;7.30;66.10;;;;;;5075807;28;20614;-49
2020/12/11 02:40:10;;;;;;;11.73;10.53;;;7.30;66.40;;;;;;5071388;28;21399;-48
2020/12/11 02:42:37;;;;;;;10.23;9.10;;;7.20;66.70;;;;;;5078572;28;20729;-48
2020/12/11 02:45:04;;;;;;;10.03;9.13;;;7.20;66.90;;;;;;5082460;28;20621;-48
2020/12/11 02:47:33;;;;;;;10.37;8.67;;;7.20;66.70;;;;;;5078143;28;21058;-48
2020/12/11 02:50:01;;;;;;;10.83;9.77;;;7.30;66.80;;;;;;5083606;28;20784;-48
2020/12/11 02:52:27;;;;;;;9.53;8.63;;;7.20;66.40;;;;;;5073144;28;20726;-47
2020/12/11 02:54:54;;;;;;;11.00;9.90;;;7.30;66.50;;;;;;5071453;28;20907;-48
2020/12/11 02:57:22;;;;;;;9.50;8.50;;;7.20;66.40;;;;;;5083006;28;21088;-48
2020/12/11 02:59:48;;;;;;;10.30;9.30;;;7.20;66.70;;;;;;5088113;28;20630;-48
2020/12/11 03:02:15;;;;;;;10.10;9.10;;;7.20;66.90;;;;;;5075710;28;20676;-48
2020/12/11 03:04:42;;;;;;;9.60;8.70;;;7.20;66.70;;;;;;5069512;28;20634;-48
2020/12/11 03:07:09;;;;;;;10.37;9.30;;;7.20;67.10;;;;;;5073067;28;20972;-48
2020/12/11 03:09:35;;;;;;;10.00;9.07;;;7.20;67.70;;;;;;5090918;28;21176;-47
2020/12/11 03:12:02;;;;;;;10.67;9.60;;;7.20;67.90;;;;;;5085038;28;21189;-48
2020/12/11 03:14:30;;;;;;;10.47;9.43;;;7.20;67.70;;;;;;5070620;28;20662;-48
2020/12/11 03:16:57;;;;;;;9.63;8.80;;;7.20;67.60;;;;;;5071640;28;20672;-48
2020/12/11 03:19:24;;;;;;;9.70;8.73;;;7.20;67.70;;;;;;5087461;28;20629;-48
2020/12/11 03:21:50;;;;;;;9.50;8.60;;;7.20;67.60;;;;;;5070485;28;20707;-48
2020/12/11 03:24:17;;;;;;;11.97;10.77;;;7.20;67.20;;;;;;5070267;28;20716;-48
2020/12/11 03:26:44;;;;;;;13.53;12.17;;;7.30;67.00;;;;;;5076565;28;20618;-48
2020/12/11 03:29:11;;;;;;;11.47;10.30;;;7.30;66.80;;;;;;5090415;28;20686;-48
2020/12/11 03:31:38;;;;;;;11.40;10.30;;;7.20;66.70;;;;;;5090481;28;20726;-48
2020/12/11 03:34:05;;;;;;;13.87;9.97;;;7.20;66.90;;;;;;5071105;28;20630;-48
2020/12/11 03:36:32;;;;;;;11.43;10.43;;;7.20;66.90;;;;;;5070047;28;20790;-47
2020/12/11 03:38:58;;;;;;;10.47;9.47;;;7.20;66.90;;;;;;5070929;28;21126;-48
2020/12/11 03:41:25;;;;;;;12.60;9.93;;;7.20;66.90;;;;;;5069099;28;20769;-48
2020/12/11 03:43:52;;;;;;;11.67;10.20;;;7.10;67.50;;;;;;5086126;28;20685;-47
2020/12/11 03:46:19;;;;;;;11.77;10.13;;;7.00;67.90;;;;;;5086775;28;20634;-48
2020/12/11 03:48:47;;;;;;;14.23;10.70;;;7.00;68.00;;;;;;5079368;28;20644;-47
2020/12/11 03:51:17;;;;;;;10.97;9.87;;;7.00;68.40;;;;;;5069780;28;20721;-48
2020/12/11 03:53:44;;;;;;;12.70;11.40;;;7.00;68.20;;;;;;5084637;28;20616;-48
2020/12/11 03:56:13;;;;;;;14.23;10.70;;;7.00;68.50;;;;;;5087710;28;20652;-48
2020/12/11 03:58:39;;;;;;;12.57;10.87;;;7.00;68.50;;;;;;5069694;28;20650;-48
2020/12/11 04:01:08;;;;;;;12.33;10.93;;;7.00;68.00;;;;;;5069967;28;20726;-48
2020/12/11 04:03:35;;;;;;;10.53;9.47;;;7.00;67.90;;;;;;5085058;28;20737;-48
2020/12/11 04:06:06;;;;;;;11.20;10.10;;;7.00;68.40;;;;;;5089446;28;20633;-48
2020/12/11 04:08:33;;;;;;;13.07;11.70;;;7.00;68.60;;;;;;5086174;28;20622;-47
2020/12/11 04:11:03;;;;;;;12.67;11.30;;;7.00;68.40;;;;;;5085748;28;20658;-48
2020/12/11 04:13:30;;;;;;;13.00;10.50;;;7.00;68.20;;;;;;5076378;28;20622;-48
2020/12/11 04:15:57;;;;;;;11.90;10.70;;;7.00;68.10;;;;;;5069011;28;20633;-48
2020/12/11 04:18:23;;;;;;;12.77;11.13;;;7.00;68.30;;;;;;5070402;28;20705;-48
2020/12/11 04:20:50;;;;;;;12.67;11.37;;;7.00;68.40;;;;;;5068847;28;21141;-48
2020/12/11 04:23:18;;;;;;;14.97;10.70;;;6.90;68.40;;;;;;5080205;28;20648;-47
2020/12/11 04:25:44;;;;;;;18.77;14.10;;;6.90;68.40;;;;;;5089982;28;20681;-47
2020/12/11 04:28:11;;;;;;;14.20;12.00;;;6.90;68.40;;;;;;5070057;28;20625;-47
2020/12/11 04:30:38;;;;;;;16.93;14.07;;;6.90;68.20;;;;;;5069567;28;21036;-47
2020/12/11 04:33:05;;;;;;;18.33;14.30;;;6.90;68.90;;;;;;5062081;28;20670;-46
2020/12/11 04:35:31;;;;;;;16.10;13.57;;;6.80;68.20;;;;;;5074005;28;20678;-47
2020/12/11 04:37:58;;;;;;;21.17;16.17;;;6.80;68.40;;;;;;5075231;28;20752;-47
2020/12/11 04:40:26;;;;;;;19.40;14.40;;;6.70;68.80;;;;;;5070367;28;20725;-48
2020/12/11 04:42:52;;;;;;;16.90;13.00;;;6.70;69.10;;;;;;5078028;28;20704;-48
2020/12/11 04:45:19;;;;;;;13.90;12.30;;;6.70;69.40;;;;;;5050991;28;21209;-47
2020/12/11 04:47:46;;;;;;;14.57;13.03;;;6.70;69.60;;;;;;5068491;28;20652;-47
2020/12/11 04:50:15;;;;;;;18.10;14.23;;;6.70;69.80;;;;;;5058759;28;21498;-47
2020/12/11 04:52:42;;;;;;;15.57;13.20;;;6.70;69.80;;;;;;5079230;28;20634;-47
2020/12/11 04:55:12;;;;;;;13.53;12.13;;;6.70;69.80;;;;;;5069105;28;21188;-47
2020/12/11 04:57:43;;;;;;;15.27;12.23;;;6.60;69.90;;;;;;5074058;28;20633;-47
2020/12/11 05:00:10;;;;;;;14.67;11.43;;;6.60;70.10;;;;;;5073480;28;20646;-46
2020/12/11 05:02:40;;;;;;;12.83;11.47;;;6.60;70.20;;;;;;5076881;28;20672;-47
2020/12/11 05:05:07;;;;;;;15.30;12.60;;;6.60;70.20;;;;;;5083007;28;20626;-47
2020/12/11 05:07:34;;;;;;;16.57;12.60;;;6.60;70.30;;;;;;5073632;28;21068;-48
2020/12/11 05:10:00;;;;;;;13.90;12.00;;;6.50;70.40;;;;;;5072392;28;20704;-47
2020/12/11 05:12:27;;;;;;;14.13;12.43;;;6.50;70.60;;;;;;5060674;28;20724;-47
2020/12/11 05:14:58;;;;;;;12.80;11.53;;;6.50;70.90;;;;;;5072452;28;20633;-46
2020/12/11 05:17:29;;;;;;;14.17;11.03;;;6.50;71.10;;;;;;5085199;28;20677;-46
2020/12/11 05:19:56;;;;;;;14.90;11.97;;;6.50;71.10;;;;;;5086217;28;20667;-48
2020/12/11 05:22:25;;;;;;;12.07;10.80;;;6.50;71.10;;;;;;5073671;28;20730;-47
2020/12/11 05:24:53;;;;;;;15.17;13.37;;;6.50;71.20;;;;;;5075631;28;20690;-47
2020/12/11 05:27:40;;;;;;;14.53;11.77;;;6.50;71.30;;;;;;5072716;28;20629;-48
2020/12/11 05:30:24;;;;;;;11.80;10.67;;;6.50;71.20;;;;;;5072328;28;20625;-48
2020/12/11 05:32:52;;;;;;;14.97;12.90;;;6.60;71.20;;;;;;5078007;28;21063;-47
2020/12/11 05:35:26;;;;;;;13.60;12.00;;;6.60;70.90;;;;;;5080599;28;20678;-46
2020/12/11 05:37:55;;;;;;;14.23;12.20;;;6.60;71.50;;;;;;5089232;28;20673;-46
2020/12/11 05:40:23;;;;;;;15.00;12.10;;;6.60;70.60;;;;;;5090755;28;20632;-47
2020/12/11 05:43:15;;;;;;;17.97;13.50;;;6.60;70.60;;;;;;5081308;28;20657;-47
2020/12/11 05:45:49;;;;;;;12.87;11.43;;;6.60;70.80;;;;;;5087545;28;20625;-47
2020/12/11 05:48:16;;;;;;;12.93;11.53;;;6.50;70.70;;;;;;5085186;28;20624;-47
2020/12/11 05:50:43;;;;;;;14.10;12.47;;;6.50;71.00;;;;;;5070358;28;20617;-47
2020/12/11 05:53:10;;;;;;;13.00;11.57;;;6.50;71.30;;;;;;5075467;28;20625;-48
2020/12/11 05:55:36;;;;;;;17.43;13.53;;;6.50;71.40;;;;;;5072991;28;21027;-48
2020/12/11 05:58:03;;;;;;;14.83;13.27;;;6.40;71.70;;;;;;5091641;28;20752;-48
2020/12/11 06:00:30;;;;;;;15.97;12.97;;;6.50;71.80;;;;;;5090910;28;20685;-48
2020/12/11 06:02:57;;;;;;;13.70;12.00;;;6.50;71.60;;;;;;5081201;28;20706;-49
2020/12/11 06:05:24;;;;;;;14.87;12.60;;;6.50;71.50;;;;;;5072251;28;20633;-47
2020/12/11 06:07:51;;;;;;;15.13;13.17;;;6.40;71.70;;;;;;5072133;28;20747;-48
2020/12/11 06:10:19;;;;;;;17.97;13.43;;;6.40;72.30;;;;;;5070055;28;20637;-49
2020/12/11 06:12:46;;;;;;;16.63;14.90;;;6.40;72.50;;;;;;5068104;28;20742;-51
2020/12/11 06:15:25;;;;;;;16.70;14.80;;;6.40;72.60;;;;;;5065495;28;21176;-50
2020/12/11 06:17:54;;;;;;;18.87;15.57;;;6.40;72.60;;;;;;5067500;28;20621;-48
2020/12/11 06:20:21;;;;;;;15.93;14.23;;;6.40;72.60;;;;;;5073781;28;20678;-48
2020/12/11 06:22:48;;;;;;;17.53;14.87;;;6.40;72.70;;;;;;5079737;28;20660;-48
2020/12/11 06:25:27;;;;;;;22.00;16.53;;;6.40;73.00;;;;;;5091211;28;20720;-50
2020/12/11 06:27:54;;;;;;;20.23;16.20;;;6.40;73.10;;;;;;5075436;28;20694;-49
2020/12/11 06:30:25;;;;;;;14.93;13.43;;;6.40;73.00;;;;;;5079826;28;21100;-51
2020/12/11 06:32:51;;;;;;;19.50;16.23;;;6.40;73.00;;;;;;5073942;28;20640;-50
2020/12/11 06:35:18;;;;;;;16.27;14.57;;;6.40;73.30;;;;;;5088521;28;21080;-49
2020/12/11 06:37:46;;;;;;;16.40;14.57;;;6.40;73.60;;;;;;5091058;28;20686;-48
2020/12/11 06:40:13;;;;;;;18.83;15.97;;;6.40;73.80;;;;;;5056701;28;20722;-49
2020/12/11 06:42:41;;;;;;;19.30;15.33;;;6.50;73.90;;;;;;5082896;28;20713;-48
2020/12/11 06:45:23;;;;;;;18.53;15.90;;;6.50;73.80;;;;;;5085367;28;20636;-48
2020/12/11 06:47:51;;;;;;;14.90;12.30;;;6.50;73.80;;;;;;5090705;28;20620;-48
2020/12/11 06:50:25;;;;;;;17.40;14.80;;;6.50;73.70;;;;;;5082590;28;21436;-48
2020/12/11 06:52:54;;;;;;;16.93;15.10;;;6.50;73.90;;;;;;5070948;28;21254;-48
2020/12/11 06:55:21;;;;;;;17.80;15.10;;;6.40;73.90;;;;;;5053818;28;20720;-48
2020/12/11 06:57:49;;;;;;;15.47;13.87;;;6.40;74.00;;;;;;5089487;28;20620;-48
2020/12/11 07:00:35;;;;;;;18.30;14.00;;;6.50;74.00;;;;;;5072108;28;20701;-49
2020/12/11 07:03:24;;;;;;;21.43;17.53;;;6.50;73.90;;;;;;5069909;28;20723;-49
2020/12/11 07:06:12;;;;;;;16.30;13.97;;;6.50;74.50;;;;;;5070807;28;20629;-49
2020/12/11 07:08:39;;;;;;;20.73;16.70;;;6.50;74.30;;;;;;5071508;28;21250;-49
2020/12/11 07:11:11;;;;;;;19.13;14.23;;;6.50;74.40;;;;;;5079516;28;20686;-49
2020/12/11 07:13:53;;;;;;;20.07;15.73;;;6.50;75.00;;;;;;5083075;28;21148;-49
2020/12/11 07:16:20;;;;;;;19.10;15.87;;;6.50;74.40;;;;;;5088908;28;21097;-49
2020/12/11 07:18:47;;;;;;;18.50;16.50;;;6.60;74.40;;;;;;5090491;28;20690;-48
2020/12/11 07:21:14;;;;;;;17.57;15.67;;;6.60;74.20;;;;;;5071975;28;20660;-50
2020/12/11 07:23:42;;;;;;;19.80;16.17;;;6.60;74.20;;;;;;5071001;28;20653;-49
2020/12/11 07:26:08;;;;;;;19.03;15.43;;;6.60;74.20;;;;;;5067300;28;20692;-49
2020/12/11 07:28:35;;;;;;;17.00;14.73;;;6.60;74.10;;;;;;5069186;28;21181;-49
2020/12/11 07:31:02;;;;;;;17.43;14.43;;;6.60;74.30;;;;;;5069471;28;20661;-49
2020/12/11 07:33:35;;;;;;;18.60;16.40;;;6.70;74.20;;;;;;5055746;28;21173;-49
2020/12/11 07:36:02;;;;;;;18.30;16.40;;;6.70;74.00;;;;;;5058866;28;20625;-49
2020/12/11 07:38:29;;;;;;;16.00;14.33;;;6.70;73.60;;;;;;5069627;28;21058;-48
2020/12/11 07:40:57;;;;;;;17.80;15.00;;;6.60;73.60;;;;;;5069954;28;21025;-50
2020/12/11 07:43:24;;;;;;;19.47;16.77;;;6.50;74.50;;;;;;5069283;28;21200;-49
2020/12/11 07:45:51;;;;;;;15.03;13.50;;;6.50;74.40;;;;;;5050111;28;20623;-49
2020/12/11 07:48:19;;;;;;;16.13;13.67;;;6.50;74.40;;;;;;5066972;28;20625;-49
2020/12/11 07:50:46;;;;;;;18.57;15.57;;;6.60;74.50;;;;;;5069097;28;20683;-49
2020/12/11 07:53:13;;;;;;;19.37;17.37;;;6.60;74.20;;;;;;5069303;28;20726;-49
2020/12/11 07:55:40;;;;;;;18.03;15.10;;;6.70;74.00;;;;;;5069326;28;20684;-49
2020/12/11 07:58:07;;;;;;;18.10;16.20;;;6.70;73.70;;;;;;5068759;28;20911;-49
2020/12/11 08:00:38;;;;;;;17.50;14.90;;;6.80;73.60;;;;;;5069003;28;20625;-49
2020/12/11 08:03:06;;;;;;;17.80;15.90;;;6.80;73.40;;;;;;5068014;28;20653;-48
2020/12/11 08:05:37;;;;;;;19.43;15.27;;;6.90;73.30;;;;;;5068964;28;20630;-48
2020/12/11 08:08:04;;;;;;;19.40;14.77;;;7.00;73.70;;;;;;5069321;28;20635;-51
2020/12/11 08:10:41;;;;;;;17.30;15.43;;;7.00;72.90;;;;;;5065389;28;21161;-51
2020/12/11 08:13:12;;;;;;;22.07;15.60;;;7.00;72.50;;;;;;5083774;28;20695;-50
2020/12/11 08:15:39;;;;;;;16.53;14.83;;;7.00;72.40;;;;;;5087949;28;21169;-49
2020/12/11 08:18:22;;;;;;;17.03;15.23;;;7.10;72.40;;;;;;5070827;28;20980;-48
2020/12/11 08:20:56;;;;;;;18.77;16.77;;;7.10;72.70;;;;;;5047871;28;20977;-48
2020/12/11 08:23:38;;;;;;;21.33;18.37;;;7.00;72.50;;;;;;5078862;28;21157;-48
2020/12/11 08:26:09;;;;;;;23.17;17.90;;;7.00;72.10;;;;;;5069983;28;20992;-47
2020/12/11 08:28:37;;;;;;;17.97;16.00;;;7.00;72.00;;;;;;5073289;28;21042;-47
2020/12/11 08:31:28;;;;;;;17.90;16.10;;;7.00;72.20;;;;;;5090579;28;20657;-49
2020/12/11 08:34:02;;;;;;;17.17;14.20;;;7.00;72.20;;;;;;5052686;28;20671;-49
2020/12/11 08:36:29;;;;;;;21.83;14.63;;;7.00;72.30;;;;;;5074269;28;21203;-49
2020/12/11 08:39:13;;;;;;;16.97;14.73;;;7.10;72.70;;;;;;5072827;28;21038;-50
2020/12/11 08:41:43;;;;;;;20.20;16.03;;;7.10;72.60;;;;;;5055490;28;20679;-51
2020/12/11 08:44:29;;;;;;;17.00;14.13;;;7.20;72.10;;;;;;5075012;28;20719;-51
2020/12/11 08:47:16;;;;;;;19.10;14.40;;;7.30;72.20;;;;;;5075393;28;20630;-51
2020/12/11 08:49:45;;;;;;;17.10;14.17;;;7.40;71.70;;;;;;5072071;28;20653;-50
2020/12/11 08:52:12;;;;;;;16.80;15.10;;;7.50;71.00;;;;;;5083777;28;21061;-51
2020/12/11 08:54:39;;;;;;;15.00;13.40;;;7.60;70.40;;;;;;5092416;28;20675;-51
2020/12/11 08:57:06;;;;;;;16.80;15.07;;;7.70;70.20;;;;;;5092628;28;20633;-51
2020/12/11 08:59:34;;;;;;;17.40;13.97;;;7.80;70.70;;;;;;5082920;28;20655;-51
2020/12/11 09:02:01;;;;;;;20.00;14.97;;;7.90;69.80;;;;;;5071950;28;20657;-50
2020/12/11 09:04:28;;;;;;;14.30;12.77;;;7.90;69.60;;;;;;5072099;28;20667;-50
2020/12/11 09:06:55;;;;;;;18.07;15.63;;;7.90;68.90;;;;;;5082639;28;20630;-52
2020/12/11 09:09:21;;;;;;;14.10;12.47;;;7.90;68.50;;;;;;5080301;28;20691;-51
2020/12/11 09:11:48;;;;;;;15.90;14.10;;;7.90;68.20;;;;;;5089620;28;20727;-52
2020/12/11 09:14:15;;;;;;;17.70;15.80;;;7.90;68.10;;;;;;5076666;28;20623;-52
2020/12/11 09:16:43;;;;;;;16.27;13.90;;;7.80;68.20;;;;;;5092448;28;20642;-50
2020/12/11 09:19:10;;;;;;;15.87;14.30;;;7.80;68.50;;;;;;5085660;28;20627;-52
2020/12/11 09:21:37;;;;;;;16.20;14.50;;;7.90;68.60;;;;;;5071567;28;20724;-51
2020/12/11 09:24:04;;;;;;;20.33;15.37;;;8.10;68.50;;;;;;5078232;28;20654;-50
2020/12/11 09:26:32;;;;;;;14.67;13.17;;;8.10;68.50;;;;;;5081833;28;20650;-50
2020/12/11 09:29:06;;;;;;;16.80;13.97;;;8.30;68.10;;;;;;5073946;28;20636;-51
2020/12/11 09:31:34;;;;;;;16.60;14.90;;;8.30;67.30;;;;;;5068915;28;20787;-50
2020/12/11 09:34:01;;;;;;;16.50;14.80;;;8.40;67.30;;;;;;5087931;28;20688;-50
2020/12/11 09:36:28;;;;;;;15.57;13.97;;;8.50;66.80;;;;;;5083915;28;20762;-50
2020/12/11 09:38:55;;;;;;;17.20;14.60;;;8.60;66.40;;;;;;5079583;28;20709;-52
2020/12/11 09:41:27;;;;;;;16.23;14.63;;;8.60;65.90;;;;;;5072781;28;20721;-52
2020/12/11 09:44:19;;;;;;;14.83;13.00;;;8.70;65.60;;;;;;5074837;28;21261;-52
2020/12/11 09:46:55;;;;;;;15.67;14.17;;;8.80;64.80;;;;;;5090267;28;20624;-53
2020/12/11 09:49:27;;;;;;;19.47;15.33;;;8.80;64.10;;;;;;5071248;28;20625;-53
2020/12/11 09:52:05;;;;;;;16.10;14.40;;;8.80;63.60;;;;;;5072436;28;20645;-53
2020/12/11 09:54:34;;;;;;;16.23;14.53;;;8.70;63.20;;;;;;5073395;28;20639;-50
2020/12/11 09:57:01;;;;;;;17.30;14.70;;;8.70;63.50;;;;;;5072554;28;20632;-50
2020/12/11 09:59:32;;;;;;;14.70;13.17;;;8.70;63.30;;;;;;5072036;28;21222;-50
2020/12/11 10:02:14;;;;;;;17.20;15.30;;;8.70;63.60;;;;;;5071995;28;20713;-50
2020/12/11 10:04:42;;;;;;;18.60;15.93;;;8.80;63.70;;;;;;5071401;28;20656;-51
2020/12/11 10:07:09;;;;;;;15.37;13.90;;;8.80;63.40;;;;;;5071195;28;20647;-52
2020/12/11 10:09:36;;;;;;;15.80;14.10;;;8.80;63.10;;;;;;5070842;28;20670;-49
2020/12/11 10:12:04;;;;;;;16.10;14.40;;;8.80;62.50;;;;;;5069988;28;20713;-49
2020/12/11 10:14:33;;;;;;;16.93;15.33;;;8.70;62.60;;;;;;5080641;28;20636;-50
2020/12/11 10:16:59;;;;;;;13.83;12.17;;;8.70;63.00;;;;;;5082106;28;20631;-51
2020/12/11 10:19:26;;;;;;;15.27;13.67;;;8.70;63.30;;;;;;5072108;28;20762;-53
2020/12/11 10:21:54;;;;;;;22.70;18.70;;;8.80;62.90;;;;;;5089805;28;20651;-52
2020/12/11 10:24:21;;;;;;;18.80;14.60;;;8.80;62.50;;;;;;5076557;28;21202;-51
2020/12/11 10:26:48;;;;;;;15.60;14.00;;;8.80;62.60;;;;;;5081082;28;21168;-53
2020/12/11 10:29:15;;;;;;;15.50;13.30;;;8.80;62.30;;;;;;5073436;28;20628;-52
2020/12/11 10:31:42;;;;;;;14.23;12.60;;;8.80;62.30;;;;;;5074048;28;20668;-53
2020/12/11 10:34:10;;;;;;;16.23;14.50;;;8.70;62.40;;;;;;5071368;28;20737;-54
2020/12/11 10:36:37;;;;;;;15.80;13.80;;;8.60;62.60;;;;;;5091241;28;20693;-52
2020/12/11 10:39:04;;;;;;;16.10;13.80;;;8.50;63.10;;;;;;5077545;28;20632;-52
2020/12/11 10:41:31;;;;;;;17.77;15.87;;;8.60;63.90;;;;;;5070589;28;20664;-53
2020/12/11 10:43:58;;;;;;;16.03;14.37;;;8.60;63.80;;;;;;5070430;28;20660;-53
2020/12/11 10:46:25;;;;;;;16.00;14.03;;;8.70;64.10;;;;;;5071196;28;20697;-53
2020/12/11 10:48:52;;;;;;;15.20;12.97;;;8.70;63.90;;;;;;5070226;28;20629;-49
2020/12/11 10:51:19;;;;;;;16.90;14.17;;;8.70;63.70;;;;;;5070242;28;21042;-53
2020/12/11 10:53:46;;;;;;;16.37;13.70;;;8.70;64.00;;;;;;5070675;28;20704;-52
2020/12/11 10:56:14;;;;;;;18.67;15.60;;;8.70;65.20;;;;;;5069818;28;20702;-53
2020/12/11 10:58:41;;;;;;;17.87;16.10;;;8.80;65.70;;;;;;5075665;28;20640;-52
2020/12/11 11:01:09;;;;;;;16.77;14.97;;;8.90;66.30;;;;;;5089107;28;20839;-49
2020/12/11 11:03:36;;;;;;;16.47;14.50;;;8.90;67.10;;;;;;5076552;28;20687;-49
2020/12/11 11:06:07;;;;;;;17.10;15.30;;;9.00;66.80;;;;;;5087320;28;20657;-50
2020/12/11 11:08:42;;;;;;;17.57;15.30;;;9.00;66.80;;;;;;5071895;28;20616;-50
2020/12/11 11:11:09;;;;;;;16.23;14.07;;;9.00;67.30;;;;;;5070049;28;20652;-50
2020/12/11 11:13:48;;;;;;;17.43;13.87;;;9.00;66.90;;;;;;5069334;28;20666;-50
2020/12/11 11:16:19;;;;;;;18.47;15.83;;;9.10;67.00;;;;;;5070719;28;20690;-51
2020/12/11 11:18:51;;;;;;;14.97;13.37;;;9.10;66.70;;;;;;5074678;28;20736;-51
2020/12/11 11:21:40;;;;;;;15.27;13.43;;;9.10;67.10;;;;;;5069448;28;20657;-52
2020/12/11 11:24:21;;;;;;;15.80;14.07;;;9.20;67.10;;;;;;5073407;28;20991;-52
2020/12/11 11:29:30;;;;;;;17.27;14.07;;;9.30;65.80;;;;;;5069737;28;20658;-53
2020/12/11 11:31:56;;;;;;;15.53;13.83;;;9.40;65.20;;;;;;5069555;28;20668;-52
2020/12/11 11:34:23;;;;;;;14.50;13.00;;;9.40;65.00;;;;;;5069073;28;20617;-53
2020/12/11 11:36:50;;;;;;;14.63;13.23;;;9.40;64.20;;;;;;5069648;28;20982;-52
2020/12/11 11:39:17;;;;;;;17.43;14.63;;;9.50;63.90;;;;;;5069045;28;20617;-53
2020/12/11 11:41:47;;;;;;;15.00;13.20;;;9.50;64.10;;;;;;5069161;28;20694;-53
2020/12/11 11:44:35;;;;;;;16.77;14.50;;;9.50;63.70;;;;;;5069652;28;20651;-51
2020/12/11 11:47:03;;;;;;;15.40;13.23;;;9.60;63.20;;;;;;5055903;28;20629;-51
2020/12/11 11:49:34;;;;;;;15.37;12.53;;;9.60;63.20;;;;;;5064078;28;20648;-50
2020/12/11 11:54:42;;;;;;;15.50;13.00;;;9.60;63.20;;;;;;5067908;28;20748;-52
2020/12/11 11:57:09;;;;;;;13.33;12.10;;;9.60;63.50;;;;;;5051078;28;20647;-52
2020/12/11 11:59:35;;;;;;;13.63;12.33;;;9.70;63.30;;;;;;5072772;28;20616;-50
2020/12/11 12:02:04;;;;;;;14.43;12.93;;;9.70;62.50;;;;;;5058321;28;20761;-49
2020/12/11 12:04:31;;;;;;;18.13;12.87;;;9.70;63.10;;;;;;5068128;28;20684;-51
2020/12/11 12:06:57;;;;;;;17.67;13.77;;;9.70;62.20;;;;;;5063789;28;20673;-50
2020/12/11 12:09:24;;;;;;;14.87;12.80;;;9.70;62.70;;;;;;5068540;28;21016;-51
2020/12/11 12:11:51;;;;;;;15.80;14.20;;;9.60;63.10;;;;;;5073877;28;20660;-52
2020/12/11 12:14:18;;;;;;;18.40;16.20;;;9.60;62.50;;;;;;5068589;28;20628;-51
2020/12/11 12:16:46;;;;;;;13.70;10.13;;;9.60;62.80;;;;;;5067691;28;20641;-51
2020/12/11 12:19:17;;;;;;;12.90;11.60;;;9.60;63.00;;;;;;5069436;28;20961;-51
2020/12/11 12:22:18;;;;;;;12.63;11.33;;;9.60;63.10;;;;;;5068785;28;20660;-51
2020/12/11 12:30:16;;;;;;;12.60;10.90;;;9.90;62.30;;;;;;4999315;28;20630;-51
2020/12/11 12:33:06;;;;;;;13.87;11.93;;;10.10;60.30;;;;;;5051624;28;20785;-52
2020/12/11 12:35:42;;;;;;;13.40;12.10;;;10.10;60.00;;;;;;5079508;28;20674;-52
2020/12/11 12:38:13;;;;;;;15.47;13.73;;;10.30;59.70;;;;;;5086992;28;20624;-50
2020/12/11 12:43:30;;;;;;;13.13;11.83;;;10.30;59.30;;;;;;5011595;28;20659;-50
2020/12/11 12:45:56;;;;;;;14.17;11.67;;;10.20;59.20;;;;;;5068577;28;20730;-51
2020/12/11 12:48:23;;;;;;;15.63;12.10;;;10.20;59.40;;;;;;5068574;28;20625;-51
2020/12/11 12:50:51;;;;;;;12.30;11.10;;;10.10;59.30;;;;;;5068909;28;20698;-50
2020/12/11 12:53:18;;;;;;;13.03;11.63;;;10.10;59.50;;;;;;5064470;28;20994;-52
2020/12/11 12:55:47;;;;;;;14.07;12.30;;;10.00;59.50;;;;;;5059413;28;20725;-51
2020/12/11 12:58:15;;;;;;;12.90;11.00;;;9.90;60.90;;;;;;5048695;28;20633;-52
2020/12/11 13:00:53;;;;;;;12.97;11.67;;;9.90;61.30;;;;;;5059041;28;20617;-51
2020/12/11 13:06:08;;;;;;;11.33;9.33;;;9.90;61.90;;;;;;5065250;28;20641;-49